New Leo — D5IU7 — position and weather

sailwx.info

Track history (hours):
 
Tides and Currents Weather Stations Pressure Air Temp Water Temp Dewpoint Dewpoint Depression Visibility Wind Speed Wind Dir Waves Ship Positions

New Leo

Last reported at 2018-Oct-16 17:00 UTC. Time now 2018-Oct-18 09:55 UTC.
Position N 42°48' E 007°32'.

Length 103 m; draft 6.4 m.

Type: Cargo ship. MMSI: 636016994.

Date/timePositionNaut miles runAvg speedWind from/ knotsBaromVisibWave heightAir tempDewpointWater temp
2018-Oct-16 17:00N 42°48' E 007°32'611.2
2018-Oct-16 16:31N 42°52' E 007°36'511.2
2018-Oct-16 16:03N 42°57' E 007°40'111.0
2018-Oct-16 16:01N 42°57' E 007°40'611.0
2018-Oct-16 15:30N 43°02' E 007°44'511.0
2018-Oct-16 15:04N 43°06' E 007°48'111.4
2018-Oct-16 15:01N 43°06' E 007°49'611.4
2018-Oct-16 14:31N 43°11' E 007°53'611.5
2018-Oct-16 14:00N 43°16' E 007°57'611.7
2018-Oct-16 13:30N 43°21' E 008°01'511.6
2018-Oct-16 13:04N 43°26' E 008°04'111.5
2018-Oct-16 13:01N 43°26' E 008°05'611.5
2018-Oct-16 12:31N 43°31' E 008°08'511.4
2018-Oct-16 12:03N 43°36' E 008°12'111.5
2018-Oct-16 12:00N 43°36' E 008°12'611.4
2018-Oct-16 11:30N 43°42' E 008°15'512.0
2018-Oct-16 11:03N 43°46' E 008°19'112.2
2018-Oct-16 11:01N 43°47' E 008°19'612.0
2018-Oct-16 10:30N 43°52' E 008°23'611.8
2018-Oct-16 10:02N 43°57' E 008°26'111.7
2018-Oct-16 09:59N 43°58' E 008°26'612.0
2018-Oct-16 09:30N 44°03' E 008°29'612.3
2018-Oct-16 09:03N 44°09' E 008°30'112.3
2018-Oct-16 09:01N 44°09' E 008°30'510.6
2018-Oct-16 08:31N 44°15' E 008°30'3 5.9
2018-Oct-16 08:04N 44°16' E 008°27'0 0.4
2018-Oct-16 07:59N 44°16' E 008°27'0 0.0
2018-Oct-16 07:29N 44°16' E 008°27'0 0.0
2018-Oct-16 07:02N 44°16' E 008°27'0 0.0
2018-Oct-16 06:59N 44°16' E 008°27'0 0.0
2018-Oct-16 06:26N 44°16' E 008°27'0 0.0
2018-Oct-16 06:02N 44°16' E 008°27'0 0.0
2018-Oct-16 05:56N 44°16' E 008°27'0 0.0
2018-Oct-16 05:29N 44°16' E 008°27'0 0.0
2018-Oct-16 05:02N 44°16' E 008°27'0 0.0
2018-Oct-16 04:56N 44°16' E 008°27'0 0.1
2018-Oct-16 04:30N 44°16' E 008°27'1 2.2
2018-Oct-16 04:03N 44°16' E 008°29'0 4.9
2018-Oct-16 04:00N 44°16' E 008°29'3 6.2
2018-Oct-16 03:30N 44°15' E 008°33'3 6.1
2018-Oct-16 03:03N 44°14' E 008°37'0 6.1
2018-Oct-16 03:00N 44°14' E 008°37'3 5.9
2018-Oct-16 02:30N 44°13' E 008°41'3 6.7
2018-Oct-16 02:03N 44°12' E 008°45'0 7.6
2018-Oct-16 02:00N 44°12' E 008°45'4 8.1
2018-Oct-16 01:30N 44°11' E 008°51'4 8.0
2018-Oct-16 01:03N 44°10' E 008°56'0 7.8
2018-Oct-16 01:00N 44°10' E 008°56'4 7.9
2018-Oct-16 00:30N 44°09' E 009°01'3 7.6
2018-Oct-16 00:03N 44°08' E 009°06'0 7.6
2018-Oct-16 00:00N 44°08' E 009°06'4 7.6
2018-Oct-15 23:30N 44°07' E 009°12'4 7.9
2018-Oct-15 23:03N 44°06' E 009°16'0 8.0
2018-Oct-15 23:00N 44°06' E 009°17'4 8.0
2018-Oct-15 22:30N 44°04' E 009°22'4 8.2
2018-Oct-15 22:03N 44°03' E 009°27'0 8.1
2018-Oct-15 22:00N 44°03' E 009°28'4 8.0
2018-Oct-15 21:30N 44°02' E 009°33'4 8.0
2018-Oct-15 21:03N 44°01' E 009°38'0 7.9
2018-Oct-15 21:00N 44°01' E 009°38'4 7.9
2018-Oct-15 20:30N 44°00' E 009°44'4 8.1
2018-Oct-15 20:03N 43°60' E 009°49'0 8.1
2018-Oct-15 20:00N 43°60' E 009°49'4 8.2
2018-Oct-15 19:29N 44°04' E 009°51'2 5.6
2018-Oct-15 19:03N 44°06' E 009°51'0 0.0
2018-Oct-15 19:00N 44°06' E 009°51'0 0.0
2018-Oct-15 18:30N 44°06' E 009°51'0 0.0
2018-Oct-15 18:03N 44°06' E 009°51'0 0.1
2018-Oct-15 17:57N 44°06' E 009°51'0 0.0
2018-Oct-15 17:30N 44°06' E 009°51'0 0.0
2018-Oct-15 17:03N 44°06' E 009°51'0 0.0
2018-Oct-15 17:00N 44°06' E 009°51'0 0.0
2018-Oct-15 16:30N 44°06' E 009°51'0 0.0
2018-Oct-15 16:03N 44°06' E 009°51'0 0.1
2018-Oct-15 16:00N 44°06' E 009°51'0 0.0
2018-Oct-15 15:30N 44°06' E 009°51'0 0.0
2018-Oct-15 15:03N 44°06' E 009°51'0 0.0
2018-Oct-15 15:00N 44°06' E 009°51'0 0.0
2018-Oct-15 14:30N 44°06' E 009°51'0 0.0
2018-Oct-15 14:00N 44°06' E 009°51'0 0.0
2018-Oct-15 13:30N 44°06' E 009°51'0 0.0
2018-Oct-15 13:03N 44°06' E 009°51'0 0.3
2018-Oct-15 13:00N 44°06' E 009°51'0 0.0
2018-Oct-15 12:30N 44°06' E 009°51'0 0.0
2018-Oct-15 12:03N 44°06' E 009°51'0 0.3
2018-Oct-15 12:00N 44°06' E 009°51'0 0.0
2018-Oct-15 11:27N 44°06' E 009°51'0 0.0
2018-Oct-15 11:03N 44°06' E 009°51'0 0.0
2018-Oct-15 11:00N 44°06' E 009°51'0 0.0
2018-Oct-15 10:30N 44°06' E 009°51'0 0.0
2018-Oct-15 10:03N 44°06' E 009°51'0 0.0
2018-Oct-15 10:00N 44°06' E 009°51'0 0.0
2018-Oct-15 09:30N 44°06' E 009°51'0 0.0
2018-Oct-15 09:03N 44°06' E 009°51'0 0.0
2018-Oct-15 09:00N 44°06' E 009°51'0 0.0
2018-Oct-15 08:30N 44°06' E 009°51'0 0.0
2018-Oct-15 08:03N 44°06' E 009°51'0 0.0
2018-Oct-15 08:00N 44°06' E 009°51'0 0.0
2018-Oct-15 07:30N 44°06' E 009°51'0 0.0
2018-Oct-15 07:03N 44°06' E 009°51'0 0.0
2018-Oct-15 07:00N 44°06' E 009°51'0 0.0
2018-Oct-15 06:30N 44°06' E 009°51'0 0.0
2018-Oct-15 06:03N 44°06' E 009°51'0 0.1
2018-Oct-15 06:00N 44°06' E 009°51'0 0.0
2018-Oct-15 05:30N 44°06' E 009°51'0 0.0
2018-Oct-15 05:03N 44°06' E 009°51'0 0.0
2018-Oct-15 05:00N 44°06' E 009°51'0 0.3
2018-Oct-15 04:31N 44°06' E 009°51'3 6.4
2018-Oct-15 04:03N 44°03' E 009°52'0 1.6
2018-Oct-15 04:00N 44°03' E 009°52'0 0.1
2018-Oct-15 03:28N 44°03' E 009°52'0 0.0
2018-Oct-15 03:01N 44°03' E 009°52'0 0.1
2018-Oct-15 02:58N 44°03' E 009°52'0 0.0
2018-Oct-15 02:28N 44°03' E 009°52'0 0.0
2018-Oct-15 02:01N 44°03' E 009°52'0 0.1
2018-Oct-15 01:58N 44°03' E 009°52'0 0.0
2018-Oct-15 01:28N 44°03' E 009°52'0 0.0
2018-Oct-15 00:58N 44°03' E 009°52'0 0.0
2018-Oct-15 00:28N 44°03' E 009°52'0 0.0
2018-Oct-15 00:01N 44°03' E 009°52'0 0.1
2018-Oct-14 23:58N 44°03' E 009°52'0 0.0
2018-Oct-14 23:28N 44°03' E 009°52'0 0.0
2018-Oct-14 23:01N 44°03' E 009°52'0 0.1
2018-Oct-14 22:58N 44°03' E 009°52'0 0.0
2018-Oct-14 22:28N 44°03' E 009°52'0 0.0
2018-Oct-14 21:58N 44°03' E 009°52'0 0.0
2018-Oct-14 21:28N 44°03' E 009°52'0 0.0
2018-Oct-14 21:01N 44°03' E 009°52'0 0.0
2018-Oct-14 20:58N 44°03' E 009°52'0 0.0
2018-Oct-14 20:28N 44°03' E 009°52'0 0.0
2018-Oct-14 20:01N 44°03' E 009°52'0 0.1
2018-Oct-14 19:55N 44°03' E 009°52'0 0.0
2018-Oct-14 19:25N 44°03' E 009°52'0 0.0
2018-Oct-14 18:58N 44°03' E 009°52'0 0.1
2018-Oct-14 18:31N 44°03' E 009°52'2 5.3
2018-Oct-14 18:04N 44°02' E 009°55'0 8.5
2018-Oct-14 18:01N 44°01' E 009°55'3 6.4
2018-Oct-14 17:31N 43°59' E 009°52'511.5
2018-Oct-14 17:03N 43°57' E 009°45'111.9
2018-Oct-14 17:00N 43°57' E 009°45'612.0
2018-Oct-14 16:30N 43°54' E 009°37'512.0
2018-Oct-14 16:03N 43°51' E 009°31'111.8
2018-Oct-14 16:01N 43°51' E 009°30'612.0
2018-Oct-14 15:31N 43°48' E 009°23'511.9
2018-Oct-14 15:04N 43°46' E 009°16'111.8
2018-Oct-14 15:00N 43°46' E 009°15'611.7
2018-Oct-14 14:31N 43°43' E 009°08'611.7
2018-Oct-14 14:00N 43°41' E 009°00'611.8
2018-Oct-14 13:30N 43°38' E 008°53'511.4
2018-Oct-14 13:03N 43°36' E 008°47'111.3
2018-Oct-14 13:00N 43°36' E 008°46'611.2
2018-Oct-14 12:30N 43°33' E 008°39'510.9
2018-Oct-14 12:04N 43°31' E 008°33'110.7
2018-Oct-14 12:00N 43°31' E 008°32'510.8
2018-Oct-14 11:30N 43°28' E 008°26'510.8
2018-Oct-14 11:03N 43°26' E 008°20'110.6
2018-Oct-14 11:00N 43°26' E 008°19'5 9.9
2018-Oct-14 10:30N 43°24' E 008°13'4 9.6
2018-Oct-14 10:03N 43°22' E 008°08'1 9.6
2018-Oct-14 10:00N 43°22' E 008°07'5 9.6
2018-Oct-14 09:30N 43°19' E 008°01'4 9.7
2018-Oct-14 09:04N 43°17' E 007°56'0 9.8
2018-Oct-14 09:01N 43°17' E 007°55'5 9.9
2018-Oct-14 08:30N 43°15' E 007°49'4 9.8
2018-Oct-14 08:03N 43°13' E 007°44'5 9.6
2018-Oct-14 07:30N 43°11' E 007°37'4 9.6
2018-Oct-14 07:04N 43°09' E 007°32'0 9.8
2018-Oct-14 07:01N 43°09' E 007°31'510.0
2018-Oct-14 06:31N 43°07' E 007°25'510.0
2018-Oct-14 06:03N 43°05' E 007°19'010.2
2018-Oct-14 06:01N 43°05' E 007°19'510.1
2018-Oct-14 05:30N 43°02' E 007°13'6910.3
2018-Oct-13 22:48N 42°33' E 005°48'310.7
2018-Oct-13 22:30N 42°31' E 005°44'510.8
2018-Oct-13 22:03N 42°29' E 005°38'010.8
2018-Oct-13 22:00N 42°29' E 005°37'15611.5
2018-Oct-13 08:29N 41°22' E 002°28'511.8
2018-Oct-13 08:03N 41°20' E 002°22'111.6
2018-Oct-13 08:01N 41°20' E 002°22'611.5
2018-Oct-13 07:30N 41°17' E 002°15'3 7.7
2018-Oct-13 07:04N 41°18' E 002°10'0 9.8
2018-Oct-13 07:00N 41°19' E 002°10'3 3.5
2018-Oct-13 06:16N 41°21' E 002°10'0 0.0
2018-Oct-13 05:43N 41°21' E 002°10'0 0.0
2018-Oct-13 05:25N 41°21' E 002°10'0 0.0
2018-Oct-13 05:01N 41°21' E 002°10'0 0.0
2018-Oct-13 04:55N 41°21' E 002°10'0 0.0
2018-Oct-13 04:28N 41°21' E 002°10'0 0.0
2018-Oct-13 04:01N 41°21' E 002°10'0 0.0
2018-Oct-13 03:58N 41°21' E 002°10'0 0.0
2018-Oct-13 03:28N 41°21' E 002°10'0 0.0
2018-Oct-13 02:55N 41°21' E 002°10'0 0.0
2018-Oct-13 02:22N 41°21' E 002°10'0 0.0
2018-Oct-13 02:01N 41°21' E 002°10'0 0.0
2018-Oct-13 01:49N 41°21' E 002°10'0 0.0
2018-Oct-13 01:28N 41°21' E 002°10'0 0.0
2018-Oct-13 00:58N 41°21' E 002°10'0 0.0
2018-Oct-13 00:28N 41°21' E 002°10'0 0.0
2018-Oct-13 00:01N 41°21' E 002°10'0 0.0
2018-Oct-12 23:49N 41°21' E 002°10'0 0.0
2018-Oct-12 22:37N 41°21' E 002°10'0 0.0
2018-Oct-12 21:49N 41°21' E 002°10'0 0.0
2018-Oct-12 21:28N 41°21' E 002°10'1 2.5
2018-Oct-12 21:03N 41°20' E 002°10'0 6.8
2018-Oct-12 21:00N 41°20' E 002°10'2 3.7
2018-Oct-12 20:30N 41°19' E 002°11'0 0.8
2018-Oct-12 20:03N 41°19' E 002°11'0 0.1
2018-Oct-12 19:58N 41°19' E 002°11'0 0.1
2018-Oct-12 19:28N 41°18' E 002°11'0 0.0
2018-Oct-12 19:01N 41°18' E 002°11'0 0.1
2018-Oct-12 18:58N 41°18' E 002°11'0 0.0
2018-Oct-12 18:28N 41°18' E 002°11'0 0.1
2018-Oct-12 18:02N 41°19' E 002°11'0 0.6
2018-Oct-12 18:00N 41°19' E 002°11'3 5.5
2018-Oct-12 17:31N 41°16' E 002°12'512.0
2018-Oct-12 17:03N 41°10' E 002°12'112.1
2018-Oct-12 17:00N 41°10' E 002°11'10911.7
2018-Oct-12 07:41N 39°20' E 002°16'312.5
2018-Oct-12 07:27N 39°18' E 002°17'3212.3
2018-Oct-12 04:50N 38°46' E 002°28'2112.5
2018-Oct-12 03:07N 38°26' E 002°35'112.8
2018-Oct-12 03:02N 38°25' E 002°35'1112.6
2018-Oct-12 02:09N 38°14' E 002°39'112.4
2018-Oct-12 02:03N 38°13' E 002°39'112.4
2018-Oct-12 02:00N 38°12' E 002°39'612.4
2018-Oct-12 01:30N 38°06' E 002°41'2012.4
2018-Oct-11 23:55N 37°47' E 002°48'  
2018-Oct-08 10:14N 42°45' E 007°33'211.1
2018-Oct-08 10:03N 42°47' E 007°34'111.0
2018-Oct-08 09:58N 42°48' E 007°35'511.0
2018-Oct-08 09:30N 42°52' E 007°38'510.9
2018-Oct-08 09:03N 42°57' E 007°42'110.9
2018-Oct-08 09:00N 42°57' E 007°42'610.8
2018-Oct-08 08:29N 43°02' E 007°46'510.7
2018-Oct-08 08:03N 43°06' E 007°49'110.7
2018-Oct-08 08:00N 43°06' E 007°49'510.8
2018-Oct-08 07:30N 43°11' E 007°53'511.0
2018-Oct-08 07:03N 43°15' E 007°56'110.9
2018-Oct-08 07:00N 43°16' E 007°57'510.9
2018-Oct-08 06:30N 43°21' E 008°00'511.0
2018-Oct-08 06:03N 43°25' E 008°03'111.2
2018-Oct-08 06:00N 43°26' E 008°03'611.4
2018-Oct-08 05:30N 43°31' E 008°06'511.5
2018-Oct-08 05:03N 43°36' E 008°09'111.4
2018-Oct-08 05:00N 43°36' E 008°10'611.4
2018-Oct-08 04:30N 43°41' E 008°12'511.4
2018-Oct-08 04:03N 43°46' E 008°15'111.6
2018-Oct-08 04:00N 43°47' E 008°16'812.1
2018-Oct-08 03:19N 43°54' E 008°20'312.1
2018-Oct-08 03:03N 43°57' E 008°22'112.0
2018-Oct-08 03:00N 43°58' E 008°22'611.8
2018-Oct-08 02:30N 44°03' E 008°26'511.7
2018-Oct-08 02:03N 44°08' E 008°29'112.0
2018-Oct-08 02:00N 44°09' E 008°29'611.5
2018-Oct-08 01:30N 44°14' E 008°31'3 7.7
2018-Oct-08 01:04N 44°16' E 008°27'0 1.4
2018-Oct-08 01:01N 44°16' E 008°27'0 0.4
2018-Oct-08 00:30N 44°16' E 008°27'0 0.0
2018-Oct-08 00:03N 44°16' E 008°27'0 0.0
2018-Oct-08 00:00N 44°16' E 008°27'0 0.0
2018-Oct-07 23:30N 44°16' E 008°27'0 0.0
2018-Oct-07 23:03N 44°16' E 008°27'0 0.0
2018-Oct-07 23:00N 44°16' E 008°27'0 0.0
2018-Oct-07 22:30N 44°16' E 008°27'0 0.0
2018-Oct-07 22:03N 44°16' E 008°27'0 0.1
2018-Oct-07 22:00N 44°16' E 008°27'0 0.0
2018-Oct-07 21:30N 44°16' E 008°27'0 0.0
2018-Oct-07 21:03N 44°16' E 008°27'0 0.0
2018-Oct-07 21:00N 44°16' E 008°27'0 0.0
2018-Oct-07 20:30N 44°16' E 008°27'0 0.0
2018-Oct-07 20:03N 44°16' E 008°27'0 0.0
2018-Oct-07 20:00N 44°16' E 008°27'0 0.0
2018-Oct-07 19:30N 44°16' E 008°27'0 0.0
2018-Oct-07 19:03N 44°16' E 008°27'0 0.0
2018-Oct-07 19:00N 44°16' E 008°27'0 0.4
2018-Oct-07 18:31N 44°16' E 008°27'1 2.2
2018-Oct-07 18:04N 44°16' E 008°29'111.5
2018-Oct-07 18:00N 44°16' E 008°29'611.7
2018-Oct-07 17:30N 44°14' E 008°37'511.7
2018-Oct-07 17:04N 44°13' E 008°44'111.7
2018-Oct-07 17:00N 44°12' E 008°45'611.6
2018-Oct-07 16:30N 44°11' E 008°53'511.9
2018-Oct-07 16:03N 44°09' E 008°60'111.8
2018-Oct-07 16:00N 44°09' E 009°01'611.6
2018-Oct-07 15:31N 44°07' E 009°08'511.3
2018-Oct-07 15:03N 44°06' E 009°15'111.2
2018-Oct-07 15:00N 44°06' E 009°16'611.4
2018-Oct-07 14:30N 44°04' E 009°24'611.6
2018-Oct-07 14:00N 44°02' E 009°31'612.0
2018-Oct-07 13:30N 44°01' E 009°39'511.8
2018-Oct-07 13:04N 44°00' E 009°47'112.1
2018-Oct-07 13:00N 44°00' E 009°47'4 8.4
2018-Oct-07 12:30N 44°03' E 009°52'4 7.6
2018-Oct-07 12:02N 44°06' E 009°51'0 0.0
2018-Oct-07 11:59N 44°06' E 009°51'0 0.0
2018-Oct-07 11:29N 44°06' E 009°51'0 0.0
2018-Oct-07 11:02N 44°06' E 009°51'0 0.0
2018-Oct-07 10:59N 44°06' E 009°51'0 0.0
2018-Oct-07 10:29N 44°06' E 009°51'0 0.0
2018-Oct-07 10:02N 44°06' E 009°51'0 0.0
2018-Oct-07 09:59N 44°06' E 009°51'0 0.0
2018-Oct-07 09:29N 44°06' E 009°51'0 0.0
2018-Oct-07 09:02N 44°06' E 009°51'0 0.0
2018-Oct-07 08:59N 44°06' E 009°51'0 0.0
2018-Oct-07 08:29N 44°06' E 009°51'0 0.0
2018-Oct-07 08:02N 44°06' E 009°51'0 0.0
2018-Oct-07 07:59N 44°06' E 009°51'0 0.0
2018-Oct-07 07:29N 44°06' E 009°51'0 0.0
2018-Oct-07 07:02N 44°06' E 009°51'0 0.0
2018-Oct-07 06:59N 44°06' E 009°51'0 0.0
2018-Oct-07 06:29N 44°06' E 009°51'0 0.0
2018-Oct-07 06:02N 44°06' E 009°51'0 0.0
2018-Oct-07 05:59N 44°06' E 009°51'0 0.0
2018-Oct-07 05:29N 44°06' E 009°51'0 0.0
2018-Oct-07 05:02N 44°06' E 009°51'0 0.0
2018-Oct-07 04:59N 44°06' E 009°51'0 0.0
2018-Oct-07 04:29N 44°06' E 009°51'0 0.0
2018-Oct-07 04:02N 44°06' E 009°51'0 0.1
2018-Oct-07 03:59N 44°06' E 009°51'0 0.0
2018-Oct-07 03:29N 44°06' E 009°51'0 0.0
2018-Oct-07 03:02N 44°06' E 009°51'0 0.1
2018-Oct-07 02:59N 44°06' E 009°51'0 0.0
2018-Oct-07 02:29N 44°06' E 009°51'0 0.0
2018-Oct-07 02:02N 44°06' E 009°51'0 0.1
2018-Oct-07 01:59N 44°06' E 009°51'0 0.0
2018-Oct-07 01:29N 44°06' E 009°51'0 0.0
2018-Oct-07 01:02N 44°06' E 009°51'0 0.1
2018-Oct-07 00:59N 44°06' E 009°51'0 0.0
2018-Oct-07 00:29N 44°06' E 009°51'0 0.0
2018-Oct-07 00:02N 44°06' E 009°51'0 0.0
2018-Oct-06 23:59N 44°06' E 009°51'0 0.0
2018-Oct-06 23:29N 44°06' E 009°51'0 0.0
2018-Oct-06 23:02N 44°06' E 009°51'0 0.2
2018-Oct-06 22:59N 44°06' E 009°51'0 0.0
2018-Oct-06 22:29N 44°06' E 009°51'0 0.0
2018-Oct-06 22:02N 44°06' E 009°51'0 0.2
2018-Oct-06 21:59N 44°06' E 009°51'0 0.0
2018-Oct-06 21:29N 44°06' E 009°51'0 0.0
2018-Oct-06 21:02N 44°06' E 009°51'0 0.4
2018-Oct-06 20:59N 44°06' E 009°51'0 0.1
2018-Oct-06 20:29N 44°06' E 009°51'0 0.0
2018-Oct-06 20:02N 44°06' E 009°51'0 0.0
2018-Oct-06 19:59N 44°06' E 009°51'0 0.0
2018-Oct-06 19:29N 44°06' E 009°51'1 2.2
2018-Oct-06 19:03N 44°05' E 009°51'0 8.4
2018-Oct-06 19:00N 44°05' E 009°51'2 4.2
2018-Oct-06 18:31N 44°03' E 009°53'0 0.3
2018-Oct-06 18:03N 44°03' E 009°52'0 0.4
2018-Oct-06 17:58N 44°03' E 009°52'0 0.1
2018-Oct-06 17:28N 44°03' E 009°52'0 0.0
2018-Oct-06 17:01N 44°03' E 009°52'  
Track history (hours):
 
Tides and Currents Weather Stations Pressure Air Temp Water Temp Dewpoint Dewpoint Depression Visibility Wind Speed Wind Dir Waves Ship Positions

New Leo

Last reported at 2018-Oct-16 17:00 UTC. Time now 2018-Oct-18 09:55 UTC.
Position N 42°48' E 007°32'.

Length 103 m; draft 6.4 m.

Type: Cargo ship. MMSI: 636016994.

Date/timePositionNaut miles runAvg speedWind from/ knotsBaromVisibWave heightAir tempDewpointWater temp
2018-Oct-16 17:00N 42°48' E 007°32'611.2
2018-Oct-16 16:31N 42°52' E 007°36'511.2
2018-Oct-16 16:03N 42°57' E 007°40'111.0
2018-Oct-16 16:01N 42°57' E 007°40'611.0
2018-Oct-16 15:30N 43°02' E 007°44'511.0
2018-Oct-16 15:04N 43°06' E 007°48'111.4
2018-Oct-16 15:01N 43°06' E 007°49'611.4
2018-Oct-16 14:31N 43°11' E 007°53'611.5
2018-Oct-16 14:00N 43°16' E 007°57'611.7
2018-Oct-16 13:30N 43°21' E 008°01'511.6
2018-Oct-16 13:04N 43°26' E 008°04'111.5
2018-Oct-16 13:01N 43°26' E 008°05'611.5
2018-Oct-16 12:31N 43°31' E 008°08'511.4
2018-Oct-16 12:03N 43°36' E 008°12'111.5
2018-Oct-16 12:00N 43°36' E 008°12'611.4
2018-Oct-16 11:30N 43°42' E 008°15'512.0
2018-Oct-16 11:03N 43°46' E 008°19'112.2
2018-Oct-16 11:01N 43°47' E 008°19'612.0
2018-Oct-16 10:30N 43°52' E 008°23'611.8
2018-Oct-16 10:02N 43°57' E 008°26'111.7
2018-Oct-16 09:59N 43°58' E 008°26'612.0
2018-Oct-16 09:30N 44°03' E 008°29'612.3
2018-Oct-16 09:03N 44°09' E 008°30'112.3
2018-Oct-16 09:01N 44°09' E 008°30'510.6
2018-Oct-16 08:31N 44°15' E 008°30'3 5.9
2018-Oct-16 08:04N 44°16' E 008°27'0 0.4
2018-Oct-16 07:59N 44°16' E 008°27'0 0.0
2018-Oct-16 07:29N 44°16' E 008°27'0 0.0
2018-Oct-16 07:02N 44°16' E 008°27'0 0.0
2018-Oct-16 06:59N 44°16' E 008°27'0 0.0
2018-Oct-16 06:26N 44°16' E 008°27'0 0.0
2018-Oct-16 06:02N 44°16' E 008°27'0 0.0
2018-Oct-16 05:56N 44°16' E 008°27'0 0.0
2018-Oct-16 05:29N 44°16' E 008°27'0 0.0
2018-Oct-16 05:02N 44°16' E 008°27'0 0.0
2018-Oct-16 04:56N 44°16' E 008°27'0 0.1
2018-Oct-16 04:30N 44°16' E 008°27'1 2.2
2018-Oct-16 04:03N 44°16' E 008°29'0 4.9
2018-Oct-16 04:00N 44°16' E 008°29'3 6.2
2018-Oct-16 03:30N 44°15' E 008°33'3 6.1
2018-Oct-16 03:03N 44°14' E 008°37'0 6.1
2018-Oct-16 03:00N 44°14' E 008°37'3 5.9
2018-Oct-16 02:30N 44°13' E 008°41'3 6.7
2018-Oct-16 02:03N 44°12' E 008°45'0 7.6
2018-Oct-16 02:00N 44°12' E 008°45'4 8.1
2018-Oct-16 01:30N 44°11' E 008°51'4 8.0
2018-Oct-16 01:03N 44°10' E 008°56'0 7.8
2018-Oct-16 01:00N 44°10' E 008°56'4 7.9
2018-Oct-16 00:30N 44°09' E 009°01'3 7.6
2018-Oct-16 00:03N 44°08' E 009°06'0 7.6
2018-Oct-16 00:00N 44°08' E 009°06'4 7.6
2018-Oct-15 23:30N 44°07' E 009°12'4 7.9
2018-Oct-15 23:03N 44°06' E 009°16'0 8.0
2018-Oct-15 23:00N 44°06' E 009°17'4 8.0
2018-Oct-15 22:30N 44°04' E 009°22'4 8.2
2018-Oct-15 22:03N 44°03' E 009°27'0 8.1
2018-Oct-15 22:00N 44°03' E 009°28'4 8.0
2018-Oct-15 21:30N 44°02' E 009°33'4 8.0
2018-Oct-15 21:03N 44°01' E 009°38'0 7.9
2018-Oct-15 21:00N 44°01' E 009°38'4 7.9
2018-Oct-15 20:30N 44°00' E 009°44'4 8.1
2018-Oct-15 20:03N 43°60' E 009°49'0 8.1
2018-Oct-15 20:00N 43°60' E 009°49'4 8.2
2018-Oct-15 19:29N 44°04' E 009°51'2 5.6
2018-Oct-15 19:03N 44°06' E 009°51'0 0.0
2018-Oct-15 19:00N 44°06' E 009°51'0 0.0
2018-Oct-15 18:30N 44°06' E 009°51'0 0.0
2018-Oct-15 18:03N 44°06' E 009°51'0 0.1
2018-Oct-15 17:57N 44°06' E 009°51'0 0.0
2018-Oct-15 17:30N 44°06' E 009°51'0 0.0
2018-Oct-15 17:03N 44°06' E 009°51'0 0.0
2018-Oct-15 17:00N 44°06' E 009°51'0 0.0
2018-Oct-15 16:30N 44°06' E 009°51'0 0.0
2018-Oct-15 16:03N 44°06' E 009°51'0 0.1
2018-Oct-15 16:00N 44°06' E 009°51'0 0.0
2018-Oct-15 15:30N 44°06' E 009°51'0 0.0
2018-Oct-15 15:03N 44°06' E 009°51'0 0.0
2018-Oct-15 15:00N 44°06' E 009°51'0 0.0
2018-Oct-15 14:30N 44°06' E 009°51'0 0.0
2018-Oct-15 14:00N 44°06' E 009°51'0 0.0
2018-Oct-15 13:30N 44°06' E 009°51'0 0.0
2018-Oct-15 13:03N 44°06' E 009°51'0 0.3
2018-Oct-15 13:00N 44°06' E 009°51'0 0.0
2018-Oct-15 12:30N 44°06' E 009°51'0 0.0
2018-Oct-15 12:03N 44°06' E 009°51'0 0.3
2018-Oct-15 12:00N 44°06' E 009°51'0 0.0
2018-Oct-15 11:27N 44°06' E 009°51'0 0.0
2018-Oct-15 11:03N 44°06' E 009°51'0 0.0
2018-Oct-15 11:00N 44°06' E 009°51'0 0.0
2018-Oct-15 10:30N 44°06' E 009°51'0 0.0
2018-Oct-15 10:03N 44°06' E 009°51'0 0.0
2018-Oct-15 10:00N 44°06' E 009°51'0 0.0
2018-Oct-15 09:30N 44°06' E 009°51'0 0.0
2018-Oct-15 09:03N 44°06' E 009°51'0 0.0
2018-Oct-15 09:00N 44°06' E 009°51'0 0.0
2018-Oct-15 08:30N 44°06' E 009°51'0 0.0
2018-Oct-15 08:03N 44°06' E 009°51'0 0.0
2018-Oct-15 08:00N 44°06' E 009°51'0 0.0
2018-Oct-15 07:30N 44°06' E 009°51'0 0.0
2018-Oct-15 07:03N 44°06' E 009°51'0 0.0
2018-Oct-15 07:00N 44°06' E 009°51'0 0.0
2018-Oct-15 06:30N 44°06' E 009°51'0 0.0
2018-Oct-15 06:03N 44°06' E 009°51'0 0.1
2018-Oct-15 06:00N 44°06' E 009°51'0 0.0
2018-Oct-15 05:30N 44°06' E 009°51'0 0.0
2018-Oct-15 05:03N 44°06' E 009°51'0 0.0
2018-Oct-15 05:00N 44°06' E 009°51'0 0.3
2018-Oct-15 04:31N 44°06' E 009°51'3 6.4
2018-Oct-15 04:03N 44°03' E 009°52'0 1.6
2018-Oct-15 04:00N 44°03' E 009°52'0 0.1
2018-Oct-15 03:28N 44°03' E 009°52'0 0.0
2018-Oct-15 03:01N 44°03' E 009°52'0 0.1
2018-Oct-15 02:58N 44°03' E 009°52'0 0.0
2018-Oct-15 02:28N 44°03' E 009°52'0 0.0
2018-Oct-15 02:01N 44°03' E 009°52'0 0.1
2018-Oct-15 01:58N 44°03' E 009°52'0 0.0
2018-Oct-15 01:28N 44°03' E 009°52'0 0.0
2018-Oct-15 00:58N 44°03' E 009°52'0 0.0
2018-Oct-15 00:28N 44°03' E 009°52'0 0.0
2018-Oct-15 00:01N 44°03' E 009°52'0 0.1
2018-Oct-14 23:58N 44°03' E 009°52'0 0.0
2018-Oct-14 23:28N 44°03' E 009°52'0 0.0
2018-Oct-14 23:01N 44°03' E 009°52'0 0.1
2018-Oct-14 22:58N 44°03' E 009°52'0 0.0
2018-Oct-14 22:28N 44°03' E 009°52'0 0.0
2018-Oct-14 21:58N 44°03' E 009°52'0 0.0
2018-Oct-14 21:28N 44°03' E 009°52'0 0.0
2018-Oct-14 21:01N 44°03' E 009°52'0 0.0
2018-Oct-14 20:58N 44°03' E 009°52'0 0.0
2018-Oct-14 20:28N 44°03' E 009°52'0 0.0
2018-Oct-14 20:01N 44°03' E 009°52'0 0.1
2018-Oct-14 19:55N 44°03' E 009°52'0 0.0
2018-Oct-14 19:25N 44°03' E 009°52'0 0.0
2018-Oct-14 18:58N 44°03' E 009°52'0 0.1
2018-Oct-14 18:31N 44°03' E 009°52'2 5.3
2018-Oct-14 18:04N 44°02' E 009°55'0 8.5
2018-Oct-14 18:01N 44°01' E 009°55'3 6.4
2018-Oct-14 17:31N 43°59' E 009°52'511.5
2018-Oct-14 17:03N 43°57' E 009°45'111.9
2018-Oct-14 17:00N 43°57' E 009°45'612.0
2018-Oct-14 16:30N 43°54' E 009°37'512.0
2018-Oct-14 16:03N 43°51' E 009°31'111.8
2018-Oct-14 16:01N 43°51' E 009°30'612.0
2018-Oct-14 15:31N 43°48' E 009°23'511.9
2018-Oct-14 15:04N 43°46' E 009°16'111.8
2018-Oct-14 15:00N 43°46' E 009°15'611.7
2018-Oct-14 14:31N 43°43' E 009°08'611.7
2018-Oct-14 14:00N 43°41' E 009°00'611.8
2018-Oct-14 13:30N 43°38' E 008°53'511.4
2018-Oct-14 13:03N 43°36' E 008°47'111.3
2018-Oct-14 13:00N 43°36' E 008°46'611.2
2018-Oct-14 12:30N 43°33' E 008°39'510.9
2018-Oct-14 12:04N 43°31' E 008°33'110.7
2018-Oct-14 12:00N 43°31' E 008°32'510.8
2018-Oct-14 11:30N 43°28' E 008°26'510.8
2018-Oct-14 11:03N 43°26' E 008°20'110.6
2018-Oct-14 11:00N 43°26' E 008°19'5 9.9
2018-Oct-14 10:30N 43°24' E 008°13'4 9.6
2018-Oct-14 10:03N 43°22' E 008°08'1 9.6
2018-Oct-14 10:00N 43°22' E 008°07'5 9.6
2018-Oct-14 09:30N 43°19' E 008°01'4 9.7
2018-Oct-14 09:04N 43°17' E 007°56'0 9.8
2018-Oct-14 09:01N 43°17' E 007°55'5 9.9
2018-Oct-14 08:30N 43°15' E 007°49'4 9.8
2018-Oct-14 08:03N 43°13' E 007°44'5 9.6
2018-Oct-14 07:30N 43°11' E 007°37'4 9.6
2018-Oct-14 07:04N 43°09' E 007°32'0 9.8
2018-Oct-14 07:01N 43°09' E 007°31'510.0
2018-Oct-14 06:31N 43°07' E 007°25'510.0
2018-Oct-14 06:03N 43°05' E 007°19'010.2
2018-Oct-14 06:01N 43°05' E 007°19'510.1
2018-Oct-14 05:30N 43°02' E 007°13'6910.3
2018-Oct-13 22:48N 42°33' E 005°48'310.7
2018-Oct-13 22:30N 42°31' E 005°44'510.8
2018-Oct-13 22:03N 42°29' E 005°38'010.8
2018-Oct-13 22:00N 42°29' E 005°37'15611.5
2018-Oct-13 08:29N 41°22' E 002°28'511.8
2018-Oct-13 08:03N 41°20' E 002°22'111.6
2018-Oct-13 08:01N 41°20' E 002°22'611.5
2018-Oct-13 07:30N 41°17' E 002°15'3 7.7
2018-Oct-13 07:04N 41°18' E 002°10'0 9.8
2018-Oct-13 07:00N 41°19' E 002°10'3 3.5
2018-Oct-13 06:16N 41°21' E 002°10'0 0.0
2018-Oct-13 05:43N 41°21' E 002°10'0 0.0
2018-Oct-13 05:25N 41°21' E 002°10'0 0.0
2018-Oct-13 05:01N 41°21' E 002°10'0 0.0
2018-Oct-13 04:55N 41°21' E 002°10'0 0.0
2018-Oct-13 04:28N 41°21' E 002°10'0 0.0
2018-Oct-13 04:01N 41°21' E 002°10'0 0.0
2018-Oct-13 03:58N 41°21' E 002°10'0 0.0
2018-Oct-13 03:28N 41°21' E 002°10'0 0.0
2018-Oct-13 02:55N 41°21' E 002°10'0 0.0
2018-Oct-13 02:22N 41°21' E 002°10'0 0.0
2018-Oct-13 02:01N 41°21' E 002°10'0 0.0
2018-Oct-13 01:49N 41°21' E 002°10'0 0.0
2018-Oct-13 01:28N 41°21' E 002°10'0 0.0
2018-Oct-13 00:58N 41°21' E 002°10'0 0.0
2018-Oct-13 00:28N 41°21' E 002°10'0 0.0
2018-Oct-13 00:01N 41°21' E 002°10'0 0.0
2018-Oct-12 23:49N 41°21' E 002°10'0 0.0
2018-Oct-12 22:37N 41°21' E 002°10'0 0.0
2018-Oct-12 21:49N 41°21' E 002°10'0 0.0
2018-Oct-12 21:28N 41°21' E 002°10'1 2.5
2018-Oct-12 21:03N 41°20' E 002°10'0 6.8
2018-Oct-12 21:00N 41°20' E 002°10'2 3.7
2018-Oct-12 20:30N 41°19' E 002°11'0 0.8
2018-Oct-12 20:03N 41°19' E 002°11'0 0.1
2018-Oct-12 19:58N 41°19' E 002°11'0 0.1
2018-Oct-12 19:28N 41°18' E 002°11'0 0.0
2018-Oct-12 19:01N 41°18' E 002°11'0 0.1
2018-Oct-12 18:58N 41°18' E 002°11'0 0.0
2018-Oct-12 18:28N 41°18' E 002°11'0 0.1
2018-Oct-12 18:02N 41°19' E 002°11'0 0.6
2018-Oct-12 18:00N 41°19' E 002°11'3 5.5
2018-Oct-12 17:31N 41°16' E 002°12'512.0
2018-Oct-12 17:03N 41°10' E 002°12'112.1
2018-Oct-12 17:00N 41°10' E 002°11'10911.7
2018-Oct-12 07:41N 39°20' E 002°16'312.5
2018-Oct-12 07:27N 39°18' E 002°17'3212.3
2018-Oct-12 04:50N 38°46' E 002°28'2112.5
2018-Oct-12 03:07N 38°26' E 002°35'112.8
2018-Oct-12 03:02N 38°25' E 002°35'1112.6
2018-Oct-12 02:09N 38°14' E 002°39'112.4
2018-Oct-12 02:03N 38°13' E 002°39'112.4
2018-Oct-12 02:00N 38°12' E 002°39'612.4
2018-Oct-12 01:30N 38°06' E 002°41'2012.4
2018-Oct-11 23:55N 37°47' E 002°48'  
2018-Oct-08 10:14N 42°45' E 007°33'211.1
2018-Oct-08 10:03N 42°47' E 007°34'111.0
2018-Oct-08 09:58N 42°48' E 007°35'511.0
2018-Oct-08 09:30N 42°52' E 007°38'510.9
2018-Oct-08 09:03N 42°57' E 007°42'110.9
2018-Oct-08 09:00N 42°57' E 007°42'610.8
2018-Oct-08 08:29N 43°02' E 007°46'510.7
2018-Oct-08 08:03N 43°06' E 007°49'110.7
2018-Oct-08 08:00N 43°06' E 007°49'510.8
2018-Oct-08 07:30N 43°11' E 007°53'511.0
2018-Oct-08 07:03N 43°15' E 007°56'110.9
2018-Oct-08 07:00N 43°16' E 007°57'510.9
2018-Oct-08 06:30N 43°21' E 008°00'511.0
2018-Oct-08 06:03N 43°25' E 008°03'111.2
2018-Oct-08 06:00N 43°26' E 008°03'611.4
2018-Oct-08 05:30N 43°31' E 008°06'511.5
2018-Oct-08 05:03N 43°36' E 008°09'111.4
2018-Oct-08 05:00N 43°36' E 008°10'611.4
2018-Oct-08 04:30N 43°41' E 008°12'511.4
2018-Oct-08 04:03N 43°46' E 008°15'111.6
2018-Oct-08 04:00N 43°47' E 008°16'812.1
2018-Oct-08 03:19N 43°54' E 008°20'312.1
2018-Oct-08 03:03N 43°57' E 008°22'112.0
2018-Oct-08 03:00N 43°58' E 008°22'611.8
2018-Oct-08 02:30N 44°03' E 008°26'511.7
2018-Oct-08 02:03N 44°08' E 008°29'112.0
2018-Oct-08 02:00N 44°09' E 008°29'611.5
2018-Oct-08 01:30N 44°14' E 008°31'3 7.7
2018-Oct-08 01:04N 44°16' E 008°27'0 1.4
2018-Oct-08 01:01N 44°16' E 008°27'0 0.4
2018-Oct-08 00:30N 44°16' E 008°27'0 0.0
2018-Oct-08 00:03N 44°16' E 008°27'0 0.0
2018-Oct-08 00:00N 44°16' E 008°27'0 0.0
2018-Oct-07 23:30N 44°16' E 008°27'0 0.0
2018-Oct-07 23:03N 44°16' E 008°27'0 0.0
2018-Oct-07 23:00N 44°16' E 008°27'0 0.0
2018-Oct-07 22:30N 44°16' E 008°27'0 0.0
2018-Oct-07 22:03N 44°16' E 008°27'0 0.1
2018-Oct-07 22:00N 44°16' E 008°27'0 0.0
2018-Oct-07 21:30N 44°16' E 008°27'0 0.0
2018-Oct-07 21:03N 44°16' E 008°27'0 0.0
2018-Oct-07 21:00N 44°16' E 008°27'0 0.0
2018-Oct-07 20:30N 44°16' E 008°27'0 0.0
2018-Oct-07 20:03N 44°16' E 008°27'0 0.0
2018-Oct-07 20:00N 44°16' E 008°27'0 0.0
2018-Oct-07 19:30N 44°16' E 008°27'0 0.0
2018-Oct-07 19:03N 44°16' E 008°27'0 0.0
2018-Oct-07 19:00N 44°16' E 008°27'0 0.4
2018-Oct-07 18:31N 44°16' E 008°27'1 2.2
2018-Oct-07 18:04N 44°16' E 008°29'111.5
2018-Oct-07 18:00N 44°16' E 008°29'611.7
2018-Oct-07 17:30N 44°14' E 008°37'511.7
2018-Oct-07 17:04N 44°13' E 008°44'111.7
2018-Oct-07 17:00N 44°12' E 008°45'611.6
2018-Oct-07 16:30N 44°11' E 008°53'511.9
2018-Oct-07 16:03N 44°09' E 008°60'111.8
2018-Oct-07 16:00N 44°09' E 009°01'611.6
2018-Oct-07 15:31N 44°07' E 009°08'511.3
2018-Oct-07 15:03N 44°06' E 009°15'111.2
2018-Oct-07 15:00N 44°06' E 009°16'611.4
2018-Oct-07 14:30N 44°04' E 009°24'611.6
2018-Oct-07 14:00N 44°02' E 009°31'612.0
2018-Oct-07 13:30N 44°01' E 009°39'511.8
2018-Oct-07 13:04N 44°00' E 009°47'112.1
2018-Oct-07 13:00N 44°00' E 009°47'4 8.4
2018-Oct-07 12:30N 44°03' E 009°52'4 7.6
2018-Oct-07 12:02N 44°06' E 009°51'0 0.0
2018-Oct-07 11:59N 44°06' E 009°51'0 0.0
2018-Oct-07 11:29N 44°06' E 009°51'0 0.0
2018-Oct-07 11:02N 44°06' E 009°51'0 0.0
2018-Oct-07 10:59N 44°06' E 009°51'0 0.0
2018-Oct-07 10:29N 44°06' E 009°51'0 0.0
2018-Oct-07 10:02N 44°06' E 009°51'0 0.0
2018-Oct-07 09:59N 44°06' E 009°51'0 0.0
2018-Oct-07 09:29N 44°06' E 009°51'0 0.0
2018-Oct-07 09:02N 44°06' E 009°51'0 0.0
2018-Oct-07 08:59N 44°06' E 009°51'0 0.0
2018-Oct-07 08:29N 44°06' E 009°51'0 0.0
2018-Oct-07 08:02N 44°06' E 009°51'0 0.0
2018-Oct-07 07:59N 44°06' E 009°51'0 0.0
2018-Oct-07 07:29N 44°06' E 009°51'0 0.0
2018-Oct-07 07:02N 44°06' E 009°51'0 0.0
2018-Oct-07 06:59N 44°06' E 009°51'0 0.0
2018-Oct-07 06:29N 44°06' E 009°51'0 0.0
2018-Oct-07 06:02N 44°06' E 009°51'0 0.0
2018-Oct-07 05:59N 44°06' E 009°51'0 0.0
2018-Oct-07 05:29N 44°06' E 009°51'0 0.0
2018-Oct-07 05:02N 44°06' E 009°51'0 0.0
2018-Oct-07 04:59N 44°06' E 009°51'0 0.0
2018-Oct-07 04:29N 44°06' E 009°51'0 0.0
2018-Oct-07 04:02N 44°06' E 009°51'0 0.1
2018-Oct-07 03:59N 44°06' E 009°51'0 0.0
2018-Oct-07 03:29N 44°06' E 009°51'0 0.0
2018-Oct-07 03:02N 44°06' E 009°51'0 0.1
2018-Oct-07 02:59N 44°06' E 009°51'0 0.0
2018-Oct-07 02:29N 44°06' E 009°51'0 0.0
2018-Oct-07 02:02N 44°06' E 009°51'0 0.1
2018-Oct-07 01:59N 44°06' E 009°51'0 0.0
2018-Oct-07 01:29N 44°06' E 009°51'0 0.0
2018-Oct-07 01:02N 44°06' E 009°51'0 0.1
2018-Oct-07 00:59N 44°06' E 009°51'0 0.0
2018-Oct-07 00:29N 44°06' E 009°51'0 0.0
2018-Oct-07 00:02N 44°06' E 009°51'0 0.0
2018-Oct-06 23:59N 44°06' E 009°51'0 0.0
2018-Oct-06 23:29N 44°06' E 009°51'0 0.0
2018-Oct-06 23:02N 44°06' E 009°51'0 0.2
2018-Oct-06 22:59N 44°06' E 009°51'0 0.0
2018-Oct-06 22:29N 44°06' E 009°51'0 0.0
2018-Oct-06 22:02N 44°06' E 009°51'0 0.2
2018-Oct-06 21:59N 44°06' E 009°51'0 0.0
2018-Oct-06 21:29N 44°06' E 009°51'0 0.0
2018-Oct-06 21:02N 44°06' E 009°51'0 0.4
2018-Oct-06 20:59N 44°06' E 009°51'0 0.1
2018-Oct-06 20:29N 44°06' E 009°51'0 0.0
2018-Oct-06 20:02N 44°06' E 009°51'0 0.0
2018-Oct-06 19:59N 44°06' E 009°51'0 0.0
2018-Oct-06 19:29N 44°06' E 009°51'1 2.2
2018-Oct-06 19:03N 44°05' E 009°51'0 8.4
2018-Oct-06 19:00N 44°05' E 009°51'2 4.2
2018-Oct-06 18:31N 44°03' E 009°53'0 0.3
2018-Oct-06 18:03N 44°03' E 009°52'0 0.4
2018-Oct-06 17:58N 44°03' E 009°52'0 0.1
2018-Oct-06 17:28N 44°03' E 009°52'0 0.0
2018-Oct-06 17:01N 44°03' E 009°52'  

Dump ship's entire track history